createdAt,value
2023-03-05T00:00:48.516Z,1.73
2023-03-05T00:03:14.785Z,1.55
2023-03-05T00:05:40.710Z,1.65
2023-03-05T00:08:07.015Z,1.67
2023-03-05T00:10:32.895Z,1.50
2023-03-05T00:12:58.904Z,1.88
2023-03-05T00:15:24.851Z,2.17
2023-03-05T00:17:50.654Z,2.10
2023-03-05T00:20:16.793Z,1.42
2023-03-05T00:22:43.058Z,1.30
2023-03-05T00:25:09.151Z,1.55
2023-03-05T00:27:35.028Z,1.70
2023-03-05T00:30:01.123Z,2.42
2023-03-05T00:32:26.961Z,1.65
2023-03-05T00:34:52.928Z,1.65
2023-03-05T00:37:18.826Z,1.48
2023-03-05T00:39:44.715Z,1.30
2023-03-05T00:42:10.537Z,1.63
2023-03-05T00:44:36.437Z,2.33
2023-03-05T00:47:02.314Z,1.30
2023-03-05T00:49:28.151Z,1.85
2023-03-05T00:51:54.442Z,1.70
2023-03-05T00:54:20.331Z,1.55
2023-03-05T00:56:46.882Z,1.52
2023-03-05T00:59:13.059Z,1.73
2023-03-05T01:01:39.248Z,1.80
2023-03-05T01:04:05.110Z,1.55
2023-03-05T01:06:30.988Z,1.48
2023-03-05T01:08:56.989Z,1.60
2023-03-05T01:11:22.895Z,1.30
2023-03-05T01:13:48.743Z,1.50
2023-03-05T01:16:14.760Z,1.50
2023-03-05T01:18:40.804Z,1.52
2023-03-05T01:21:07.151Z,1.50
2023-03-05T01:23:34.964Z,2.13
2023-03-05T01:26:00.889Z,1.60
2023-03-05T01:28:27.727Z,1.83
2023-03-05T01:30:53.562Z,1.50
2023-03-05T01:33:19.457Z,1.70
2023-03-05T01:35:47.617Z,2.00
2023-03-05T01:38:14.506Z,1.70
2023-03-05T01:40:42.104Z,1.80
2023-03-05T01:43:22.648Z,2.05
2023-03-05T01:46:30.512Z,1.60
2023-03-05T01:49:02.256Z,2.33
2023-03-05T01:51:32.525Z,2.50
2023-03-05T01:54:00.078Z,2.97
2023-03-05T01:56:28.466Z,3.80
2023-03-05T01:59:02.457Z,3.65
2023-03-05T02:01:40.165Z,4.22
2023-03-05T02:04:08.599Z,5.00
2023-03-05T02:06:34.836Z,5.55
2023-03-05T02:09:00.679Z,4.57
2023-03-05T02:11:26.604Z,4.60
2023-03-05T02:13:52.533Z,5.85
2023-03-05T02:16:18.533Z,6.32
2023-03-05T02:18:44.573Z,6.13
2023-03-05T02:21:11.103Z,6.13
2023-03-05T02:23:38.092Z,6.43
2023-03-05T02:26:09.753Z,6.68
2023-03-05T02:28:56.405Z,8.23
2023-03-05T02:31:24.473Z,8.05
2023-03-05T02:33:51.186Z,8.85
2023-03-05T02:36:18.115Z,8.23
2023-03-05T02:38:45.100Z,8.45
2023-03-05T02:41:11.718Z,8.88
2023-03-05T02:43:37.851Z,8.95
2023-03-05T02:46:04.329Z,9.05
2023-03-05T02:48:30.632Z,9.10
2023-03-05T02:50:57.278Z,10.05
2023-03-05T02:53:23.207Z,9.65
2023-03-05T02:55:49.471Z,9.73
2023-03-05T02:58:16.187Z,9.35
2023-03-05T03:00:42.603Z,8.85
2023-03-05T03:03:08.953Z,8.50
2023-03-05T03:05:35.772Z,8.82
2023-03-05T03:08:02.368Z,8.18
2023-03-05T03:10:28.254Z,8.82
2023-03-05T03:12:54.092Z,9.82
2023-03-05T03:15:20.611Z,9.65
2023-03-05T03:17:46.575Z,9.30
2023-03-05T03:20:14.845Z,9.18
2023-03-05T03:22:41.504Z,9.20
2023-03-05T03:25:07.809Z,9.77
2023-03-05T03:27:33.704Z,8.70
2023-03-05T03:30:04.212Z,9.90
2023-03-05T03:32:31.036Z,8.90
2023-03-05T03:34:57.199Z,7.35
2023-03-05T03:37:23.292Z,7.68
2023-03-05T03:39:49.245Z,7.50
2023-03-05T03:42:20.976Z,6.75
2023-03-05T03:44:47.709Z,6.65
2023-03-05T03:47:13.560Z,6.53
2023-03-05T03:49:39.607Z,7.50
2023-03-05T03:52:05.942Z,6.30
2023-03-05T03:54:32.278Z,6.70
2023-03-05T03:56:58.223Z,5.53
2023-03-05T03:59:24.099Z,8.95
2023-03-05T04:01:50.025Z,7.40
2023-03-05T04:04:16.038Z,6.97
2023-03-05T04:06:42.467Z,7.78
2023-03-05T04:09:08.799Z,7.47
2023-03-05T04:11:36.530Z,6.63
2023-03-05T04:14:03.687Z,7.50
2023-03-05T04:16:29.555Z,6.57
2023-03-05T04:18:55.450Z,5.43
2023-03-05T04:21:21.297Z,5.22
2023-03-05T04:23:47.289Z,4.68
2023-03-05T04:26:13.189Z,4.07
2023-03-05T04:28:39.100Z,3.15
2023-03-05T04:31:04.995Z,4.05
2023-03-05T04:33:31.018Z,4.57
2023-03-05T04:35:57.170Z,3.65
2023-03-05T04:38:23.267Z,3.95
2023-03-05T04:40:49.049Z,3.95
2023-03-05T04:43:14.960Z,4.10
2023-03-05T04:45:41.937Z,3.88
2023-03-05T04:48:10.034Z,4.47
2023-03-05T04:50:36.062Z,3.90
2023-03-05T04:53:02.672Z,3.80
2023-03-05T04:55:28.727Z,4.03
2023-03-05T04:57:54.810Z,4.18
2023-03-05T05:00:21.092Z,4.70
2023-03-05T05:02:49.384Z,5.32
2023-03-05T05:05:19.206Z,6.20
2023-03-05T05:07:45.136Z,6.18
2023-03-05T05:10:12.151Z,8.77
2023-03-05T05:12:38.430Z,6.82
2023-03-05T05:15:06.981Z,7.13
2023-03-05T05:17:33.773Z,8.35
2023-03-05T05:20:00.803Z,8.05
2023-03-05T05:22:28.714Z,8.20
2023-03-05T05:24:55.141Z,9.43
2023-03-05T05:27:21.313Z,9.02
2023-03-05T05:29:49.541Z,9.30
2023-03-05T05:32:17.080Z,8.60
2023-03-05T05:34:42.928Z,8.20
2023-03-05T05:37:08.783Z,10.13
2023-03-05T05:39:34.999Z,10.10
2023-03-05T05:42:01.121Z,10.35
2023-03-05T05:44:27.290Z,10.85
2023-03-05T05:46:53.360Z,12.25
2023-03-05T05:49:19.378Z,12.38
2023-03-05T05:51:45.229Z,12.95
2023-03-05T05:54:14.815Z,12.80
2023-03-05T05:56:41.081Z,14.10
2023-03-05T05:59:07.643Z,14.55
2023-03-05T06:01:34.353Z,15.07
2023-03-05T06:04:00.579Z,13.95
2023-03-05T06:06:27.072Z,15.55
2023-03-05T06:08:53.498Z,15.07
2023-03-05T06:11:20.284Z,15.57
2023-03-05T06:13:47.748Z,14.70
2023-03-05T06:16:19.506Z,15.57
2023-03-05T06:18:45.485Z,14.95
2023-03-05T06:21:14.833Z,15.32
2023-03-05T06:23:41.438Z,16.52
2023-03-05T06:26:08.783Z,16.75
2023-03-05T06:28:38.084Z,16.42
2023-03-05T06:31:06.667Z,15.80
2023-03-05T06:33:33.103Z,17.20
2023-03-05T06:35:59.467Z,18.00
2023-03-05T06:38:25.678Z,15.18
2023-03-05T06:40:51.796Z,17.58
2023-03-05T06:43:17.730Z,17.67
2023-03-05T06:45:43.701Z,16.13
2023-03-05T06:48:10.928Z,16.25
2023-03-05T06:50:37.105Z,16.33
2023-03-05T06:53:03.521Z,15.63
2023-03-05T06:55:29.527Z,16.05
2023-03-05T06:57:55.396Z,15.80
2023-03-05T07:00:21.688Z,15.52
2023-03-05T07:02:47.593Z,16.13
2023-03-05T07:05:13.665Z,15.50
2023-03-05T07:07:39.502Z,15.05
2023-03-05T07:10:08.714Z,15.70
2023-03-05T07:12:34.771Z,14.88
2023-03-05T07:15:00.798Z,15.40
2023-03-05T07:17:27.257Z,16.70
2023-03-05T07:19:53.182Z,16.88
2023-03-05T07:22:19.232Z,16.77
2023-03-05T07:24:46.837Z,17.77
2023-03-05T07:27:12.697Z,18.65
2023-03-05T07:29:38.551Z,19.70
2023-03-05T07:32:04.856Z,20.95
2023-03-05T07:34:30.891Z,20.67
2023-03-05T07:36:56.793Z,22.70
2023-03-05T07:39:23.262Z,23.40
2023-03-05T07:41:50.793Z,22.00
2023-03-05T07:44:17.052Z,23.40
2023-03-05T07:46:43.044Z,21.48
2023-03-05T07:49:08.877Z,20.90
2023-03-05T07:51:34.982Z,21.70
2023-03-05T07:54:01.389Z,20.65
2023-03-05T07:56:34.590Z,21.33
2023-03-05T07:59:03.417Z,19.63
2023-03-05T08:01:30.388Z,19.27
2023-03-05T08:03:56.848Z,19.38
2023-03-05T08:06:22.763Z,19.52
2023-03-05T08:08:48.641Z,18.63
2023-03-05T08:11:15.743Z,18.08
2023-03-05T08:13:43.015Z,18.88
2023-03-05T08:16:12.124Z,19.35
2023-03-05T08:18:38.003Z,18.27
2023-03-05T08:21:04.454Z,16.80
2023-03-05T08:23:30.633Z,17.10
2023-03-05T08:25:56.606Z,16.80
2023-03-05T08:28:23.141Z,15.85
2023-03-05T08:30:49.086Z,16.70
2023-03-05T08:33:16.872Z,15.60
2023-03-05T08:35:43.458Z,17.10
2023-03-05T08:38:09.387Z,17.10
2023-03-05T08:40:35.245Z,17.55
2023-03-05T08:43:01.208Z,17.75
2023-03-05T08:45:27.858Z,16.98
2023-03-05T08:47:56.510Z,16.95
2023-03-05T08:50:22.915Z,16.65
2023-03-05T08:52:49.778Z,15.38
2023-03-05T08:55:15.959Z,12.93
2023-03-05T08:57:41.995Z,11.35
2023-03-05T09:00:09.659Z,10.23
2023-03-05T09:02:36.459Z,8.70
2023-03-05T09:05:03.276Z,7.68
2023-03-05T09:07:29.112Z,6.45
2023-03-05T09:09:54.971Z,6.43
2023-03-05T09:12:20.757Z,6.22
2023-03-05T09:14:46.724Z,5.80
2023-03-05T09:17:12.643Z,5.93
2023-03-05T09:19:38.520Z,5.53
2023-03-05T09:22:04.373Z,5.93
2023-03-05T09:24:30.244Z,5.18
2023-03-05T09:26:59.676Z,6.38
2023-03-05T09:29:26.897Z,5.50
2023-03-05T09:31:53.216Z,6.18
2023-03-05T09:34:19.230Z,5.78
2023-03-05T09:36:46.797Z,5.82
2023-03-05T09:39:12.661Z,5.03
2023-03-05T09:42:23.645Z,5.82
2023-03-05T09:45:01.875Z,6.63
2023-03-05T09:47:56.528Z,5.88
2023-03-05T09:50:34.105Z,6.95
2023-03-05T09:53:27.943Z,7.00
2023-03-05T09:55:55.783Z,5.25
2023-03-05T09:58:42.700Z,6.32
2023-03-05T10:01:28.437Z,5.75
2023-03-05T10:04:15.979Z,5.70
2023-03-05T10:06:44.478Z,5.30
2023-03-05T10:09:10.553Z,5.68
2023-03-05T10:12:14.834Z,6.00
2023-03-05T10:14:41.249Z,4.57
2023-03-05T10:17:40.935Z,5.07
2023-03-05T10:20:21.963Z,4.75
2023-03-05T10:23:09.885Z,4.88
2023-03-05T10:26:00.048Z,5.00
2023-03-05T10:28:35.285Z,4.72
2023-03-05T10:31:20.587Z,5.40
2023-03-05T10:34:23.318Z,5.55
2023-03-05T10:37:37.262Z,6.80
2023-03-05T10:40:31.915Z,6.70
2023-03-05T10:43:14.298Z,6.05
2023-03-05T10:45:44.857Z,7.47
2023-03-05T10:48:22.834Z,6.75
2023-03-05T10:50:53.394Z,8.10
2023-03-05T10:53:36.010Z,8.50
2023-03-05T10:56:03.794Z,8.85
2023-03-05T11:03:49.042Z,10.27
2023-03-05T11:06:15.459Z,9.75
2023-03-05T11:08:41.773Z,9.45
2023-03-05T11:11:07.570Z,9.65
2023-03-05T11:13:36.792Z,9.32
2023-03-05T11:16:06.010Z,9.85
2023-03-05T11:18:36.915Z,9.50
2023-03-05T11:21:12.756Z,9.90
2023-03-05T11:23:38.682Z,8.63
2023-03-05T11:26:07.499Z,8.55
2023-03-05T11:28:34.075Z,8.82
2023-03-05T11:31:02.228Z,9.82
2023-03-05T11:33:30.162Z,13.88
2023-03-05T11:36:33.235Z,15.23
2023-03-05T11:39:23.240Z,13.73
2023-03-05T11:42:01.198Z,17.65
2023-03-05T11:44:45.798Z,18.67
2023-03-05T11:47:17.495Z,18.20
2023-03-05T11:49:47.002Z,17.23
2023-03-05T11:52:25.840Z,20.67
2023-03-05T11:55:12.217Z,19.70
2023-03-05T11:57:52.561Z,18.80
2023-03-05T12:00:29.323Z,20.27
2023-03-05T12:03:01.736Z,19.08
2023-03-05T12:05:30.073Z,19.45
2023-03-05T12:08:00.443Z,20.60
2023-03-05T12:10:29.102Z,19.88
2023-03-05T12:13:07.179Z,20.98
2023-03-05T12:15:58.256Z,19.80
2023-03-05T12:18:33.291Z,17.48
2023-03-05T12:21:02.091Z,18.35
2023-03-05T12:23:28.139Z,16.70
2023-03-05T12:25:58.613Z,18.65
2023-03-05T12:28:33.546Z,17.83
2023-03-05T12:31:37.093Z,16.10
2023-03-05T12:34:44.647Z,17.08
2023-03-05T12:37:33.221Z,15.63
2023-03-05T12:40:00.351Z,17.88
2023-03-05T12:42:29.311Z,17.02
2023-03-05T12:45:18.593Z,18.10
2023-03-05T12:48:11.391Z,18.60
2023-03-05T12:50:37.170Z,19.25
2023-03-05T12:53:06.317Z,17.13
2023-03-05T12:55:34.298Z,18.38
2023-03-05T12:58:08.648Z,17.73
2023-03-05T13:00:43.084Z,16.58
2023-03-05T13:03:15.221Z,17.83
2023-03-05T13:05:49.680Z,17.98
2023-03-05T13:08:30.930Z,18.23
2023-03-05T13:11:00.708Z,16.10
2023-03-05T13:13:29.946Z,17.70
2023-03-05T13:15:56.598Z,15.15
2023-03-05T13:18:25.327Z,14.75
2023-03-05T13:21:06.623Z,14.18
2023-03-05T13:23:34.528Z,14.55
2023-03-05T13:26:17.985Z,10.85
2023-03-05T13:29:06.672Z,11.05
2023-03-05T13:31:34.795Z,10.15
2023-03-05T13:34:18.629Z,9.93
2023-03-05T13:37:01.380Z,11.27
2023-03-05T13:39:31.909Z,11.55
2023-03-05T13:42:01.403Z,10.18
2023-03-05T13:44:28.819Z,9.80
2023-03-05T13:47:16.833Z,7.10
2023-03-05T13:49:43.439Z,7.63
2023-03-05T13:52:10.115Z,7.43
2023-03-05T13:54:36.239Z,8.43
2023-03-05T13:57:04.840Z,8.93
2023-03-05T13:59:33.356Z,8.88
2023-03-05T14:02:02.466Z,9.65
2023-03-05T14:04:33.473Z,8.40
2023-03-05T14:07:05.672Z,9.05
2023-03-05T14:09:46.568Z,9.70
2023-03-05T14:12:37.469Z,9.05
2023-03-05T14:15:20.161Z,9.57
2023-03-05T14:17:46.477Z,9.25
2023-03-05T14:20:12.221Z,10.52
2023-03-05T14:22:44.329Z,10.35
2023-03-05T14:25:29.084Z,9.45
2023-03-05T14:27:56.555Z,10.05
2023-03-05T14:30:24.125Z,10.55
2023-03-05T14:32:53.891Z,10.50
2023-03-05T14:35:26.113Z,9.95
2023-03-05T14:37:55.726Z,10.60
2023-03-05T14:40:27.527Z,9.35
2023-03-05T14:42:55.393Z,9.63
2023-03-05T14:45:24.380Z,10.25
2023-03-05T14:47:51.665Z,9.93
2023-03-05T14:50:50.993Z,11.23
2023-03-05T14:53:30.118Z,11.05
2023-03-05T14:55:56.494Z,10.68
2023-03-05T14:58:26.755Z,11.25
2023-03-05T15:00:53.305Z,11.07
2023-03-05T15:03:20.099Z,12.20
2023-03-05T15:05:49.022Z,13.20
2023-03-05T15:08:18.211Z,12.13
2023-03-05T15:10:44.308Z,12.50
2023-03-05T15:13:12.720Z,12.45
2023-03-05T15:15:39.107Z,14.40
2023-03-05T15:18:04.953Z,13.93
2023-03-05T15:20:32.086Z,14.75
2023-03-05T15:22:58.175Z,15.07
2023-03-05T15:25:28.007Z,16.23
2023-03-05T15:27:54.005Z,15.90
2023-03-05T15:30:29.862Z,16.52
2023-03-05T15:32:57.275Z,17.95
2023-03-05T15:35:24.255Z,17.73
2023-03-05T15:37:50.895Z,17.13
2023-03-05T15:40:20.214Z,17.63
2023-03-05T15:42:47.174Z,18.35
2023-03-05T15:45:13.060Z,19.27
2023-03-05T15:47:39.070Z,18.15
2023-03-05T15:50:06.295Z,19.27
2023-03-05T15:52:32.513Z,19.75
2023-03-05T15:54:59.806Z,20.25
2023-03-05T15:57:26.497Z,20.85
2023-03-05T15:59:53.668Z,19.90
2023-03-05T16:02:19.611Z,20.00
2023-03-05T16:04:45.708Z,19.17
2023-03-05T16:07:13.907Z,18.25
2023-03-05T16:09:47.521Z,18.80
2023-03-05T16:12:18.123Z,17.77
2023-03-05T16:14:45.564Z,17.15
2023-03-05T16:17:12.794Z,17.15
2023-03-05T16:19:42.209Z,16.70
2023-03-05T16:22:08.100Z,16.60
2023-03-05T16:24:34.382Z,15.60
2023-03-05T16:27:00.245Z,15.10
2023-03-05T16:29:29.341Z,14.73
2023-03-05T16:31:56.683Z,13.82
2023-03-05T16:34:22.679Z,14.43
2023-03-05T16:36:51.912Z,14.18
2023-03-05T16:39:19.260Z,13.38
2023-03-05T16:41:47.214Z,13.38
2023-03-05T16:44:13.157Z,13.07
2023-03-05T16:46:41.191Z,12.60
2023-03-05T16:49:07.871Z,11.48
2023-03-05T16:51:34.435Z,10.57
2023-03-05T16:54:00.695Z,9.55
2023-03-05T16:56:26.791Z,9.65
2023-03-05T16:58:55.005Z,9.07
2023-03-05T17:01:22.030Z,9.35
2023-03-05T17:03:49.161Z,9.27
2023-03-05T17:06:22.431Z,7.93
2023-03-05T17:08:49.301Z,9.75
2023-03-05T17:11:15.708Z,7.45
2023-03-05T17:13:41.849Z,7.65
2023-03-05T17:16:09.604Z,6.93
2023-03-05T17:18:35.743Z,6.50
2023-03-05T17:21:03.030Z,6.97
2023-03-05T17:23:28.947Z,6.47
2023-03-05T17:25:55.011Z,6.20
2023-03-05T17:28:21.085Z,5.97
2023-03-05T17:30:47.010Z,6.45
2023-03-05T17:33:13.031Z,5.07
2023-03-05T17:35:39.170Z,5.72
2023-03-05T17:38:07.338Z,5.90
2023-03-05T17:40:33.935Z,6.47
2023-03-05T17:43:00.403Z,23.55
2023-03-05T17:45:26.650Z,6.57
2023-03-05T17:47:52.795Z,6.90
2023-03-05T17:50:19.389Z,6.40
2023-03-05T17:52:45.604Z,7.28
2023-03-05T17:55:15.125Z,6.97
2023-03-05T17:57:42.632Z,7.40
2023-03-05T18:00:23.582Z,9.15
2023-03-05T18:02:50.229Z,7.45
2023-03-05T18:05:17.866Z,7.80
2023-03-05T18:07:43.969Z,9.23
2023-03-05T18:10:11.836Z,7.53
2023-03-05T18:12:37.772Z,8.90
2023-03-05T18:15:05.558Z,8.63
2023-03-05T18:17:31.536Z,8.60
2023-03-05T18:19:57.554Z,9.20
2023-03-05T18:22:23.923Z,9.27
2023-03-05T18:24:50.000Z,10.00
2023-03-05T18:27:15.889Z,8.25
2023-03-05T18:29:41.785Z,8.80
2023-03-05T18:32:07.971Z,8.60
2023-03-05T18:34:34.164Z,8.57
2023-03-05T18:37:00.172Z,9.13
2023-03-05T18:39:28.582Z,8.85
2023-03-05T18:41:55.452Z,9.63
2023-03-05T18:44:21.794Z,9.13
2023-03-05T18:46:47.683Z,8.80
2023-03-05T18:49:13.738Z,9.38
2023-03-05T18:51:40.986Z,8.95
2023-03-05T18:54:08.016Z,9.15
2023-03-05T18:56:34.043Z,9.85
2023-03-05T18:59:00.041Z,10.52
2023-03-05T19:01:26.254Z,9.27
2023-03-05T19:03:52.445Z,10.52
2023-03-05T19:06:18.753Z,9.57
2023-03-05T19:08:45.901Z,9.45
2023-03-05T19:11:17.561Z,9.43
2023-03-05T19:13:51.060Z,9.23
2023-03-05T19:16:29.774Z,9.73
2023-03-05T19:19:14.663Z,10.13
2023-03-05T19:21:42.986Z,9.30
2023-03-05T19:24:10.560Z,10.20
2023-03-05T19:26:40.831Z,11.23
2023-03-05T19:29:07.658Z,10.68
2023-03-05T19:31:34.295Z,11.10
2023-03-05T19:34:01.071Z,11.45
2023-03-05T19:36:27.198Z,10.88
2023-03-05T19:38:53.171Z,12.43
2023-03-05T19:41:20.952Z,11.77
2023-03-05T19:43:49.068Z,11.57
2023-03-05T19:46:15.858Z,13.50
2023-03-05T19:48:42.361Z,13.65
2023-03-05T19:51:10.774Z,13.18
2023-03-05T19:53:38.444Z,13.45
2023-03-05T19:56:05.621Z,13.23
2023-03-05T19:58:32.876Z,13.68
2023-03-05T20:01:17.129Z,13.50
2023-03-05T20:03:47.769Z,15.25
2023-03-05T20:06:14.133Z,13.98
2023-03-05T20:08:40.425Z,13.55
2023-03-05T20:11:06.804Z,12.98
2023-03-05T20:13:32.866Z,13.65
2023-03-05T20:15:58.795Z,13.45
2023-03-05T20:18:24.808Z,14.55
2023-03-05T20:20:56.989Z,14.57
2023-03-05T20:23:23.889Z,14.82
2023-03-05T20:25:51.307Z,14.48
2023-03-05T20:28:17.350Z,15.20
2023-03-05T20:30:43.160Z,16.02
2023-03-05T20:33:10.244Z,16.67
2023-03-05T20:35:36.229Z,16.75
2023-03-05T20:38:28.902Z,17.08
2023-03-05T20:41:06.617Z,18.50
2023-03-05T20:43:35.244Z,18.27
2023-03-05T20:46:01.873Z,17.98
2023-03-05T20:48:33.499Z,19.80
2023-03-05T20:51:11.056Z,19.63
2023-03-05T20:53:37.182Z,18.55
2023-03-05T20:56:03.367Z,19.65
2023-03-05T20:58:29.364Z,19.05
2023-03-05T21:00:55.425Z,21.25
2023-03-05T21:03:21.349Z,22.10
2023-03-05T21:05:47.289Z,21.67
2023-03-05T21:08:13.152Z,23.42
2023-03-05T21:10:39.175Z,22.80
2023-03-05T21:13:04.996Z,23.15
2023-03-05T21:15:31.140Z,23.42
2023-03-05T21:17:57.479Z,21.90
2023-03-05T21:20:29.215Z,23.52
2023-03-05T21:22:55.840Z,23.17
2023-03-05T21:25:28.255Z,24.33
2023-03-05T21:28:05.158Z,24.75
2023-03-05T21:30:42.858Z,24.70
2023-03-05T21:33:15.709Z,26.05
2023-03-05T21:35:42.405Z,25.63
2023-03-05T21:38:09.736Z,25.88
2023-03-05T21:40:42.722Z,25.25
2023-03-05T21:43:12.288Z,25.45
2023-03-05T21:45:39.748Z,26.55
2023-03-05T21:48:06.044Z,27.55
2023-03-05T21:50:35.285Z,26.55
2023-03-05T21:53:02.447Z,25.08
2023-03-05T21:55:44.378Z,28.00
2023-03-05T21:58:10.507Z,25.23
2023-03-05T22:00:36.906Z,24.60
2023-03-05T22:03:03.198Z,24.42
2023-03-05T22:05:29.147Z,22.83
2023-03-05T22:07:56.207Z,22.67
2023-03-05T22:10:22.172Z,23.23
2023-03-05T22:13:10.075Z,22.27
2023-03-05T22:15:46.275Z,21.63
2023-03-05T22:18:13.546Z,23.30
2023-03-05T22:20:40.063Z,22.20
2023-03-05T22:23:06.032Z,21.05
2023-03-05T22:25:33.786Z,20.00
2023-03-05T22:27:59.779Z,20.00
2023-03-05T22:30:25.663Z,20.02
2023-03-05T22:32:51.612Z,20.05
2023-03-05T22:35:17.538Z,19.40
2023-03-05T22:37:43.580Z,19.98
2023-03-05T22:40:14.052Z,18.83
2023-03-05T22:42:40.632Z,18.92
2023-03-05T22:45:10.652Z,18.88
2023-03-05T22:47:36.421Z,19.15
2023-03-05T22:50:03.447Z,18.48
2023-03-05T22:52:29.278Z,19.02
2023-03-05T22:54:56.108Z,18.98
2023-03-05T22:57:22.064Z,18.52
2023-03-05T22:59:49.089Z,18.58
2023-03-05T23:02:16.268Z,20.05
2023-03-05T23:04:48.826Z,18.60
2023-03-05T23:07:21.019Z,19.08
2023-03-05T23:10:08.313Z,19.33
2023-03-05T23:12:37.222Z,19.85
2023-03-05T23:15:07.328Z,19.85
2023-03-05T23:17:33.224Z,20.30
2023-03-05T23:19:59.128Z,20.10
2023-03-05T23:22:25.039Z,19.90
2023-03-05T23:24:50.843Z,19.85
2023-03-05T23:27:17.912Z,19.67
2023-03-05T23:29:58.096Z,20.13
2023-03-05T23:32:27.385Z,19.73
2023-03-05T23:34:54.811Z,19.35
2023-03-05T23:37:20.647Z,18.23
2023-03-05T23:39:46.450Z,17.73
2023-03-05T23:42:12.301Z,17.17
2023-03-05T23:44:38.194Z,18.20
2023-03-05T23:47:03.998Z,16.90
2023-03-05T23:49:29.871Z,18.40
2023-03-05T23:51:55.668Z,17.05
2023-03-05T23:54:21.594Z,18.83
2023-03-05T23:56:47.433Z,18.05
2023-03-05T23:59:13.241Z,18.40
